createdAt,value
2018-11-22T00:00:43.676Z,192.60
2018-11-22T00:03:13.293Z,213.47
2018-11-22T00:05:43.398Z,214.03
2018-11-22T00:08:13.027Z,201.13
2018-11-22T00:10:42.624Z,200.63
2018-11-22T00:13:12.264Z,196.87
2018-11-22T00:15:41.934Z,218.27
2018-11-22T00:18:11.987Z,226.93
2018-11-22T00:20:41.600Z,218.00
2018-11-22T00:23:11.285Z,220.37
2018-11-22T00:25:40.941Z,215.60
2018-11-22T00:28:10.661Z,212.47
2018-11-22T00:30:40.287Z,206.23
2018-11-22T00:33:09.935Z,209.30
2018-11-22T00:35:39.597Z,198.20
2018-11-22T00:38:09.198Z,205.40
2018-11-22T00:40:38.822Z,195.47
2018-11-22T00:43:08.494Z,193.97
2018-11-22T00:45:38.115Z,221.57
2018-11-22T00:48:07.802Z,232.63
2018-11-22T00:50:37.446Z,228.37
2018-11-22T00:53:07.150Z,206.23
2018-11-22T00:55:36.786Z,205.10
2018-11-22T00:58:06.849Z,233.83
2018-11-22T01:00:36.440Z,223.97
2018-11-22T01:03:06.095Z,219.20
2018-11-22T01:05:35.723Z,216.20
2018-11-22T01:08:06.056Z,209.03
2018-11-22T01:10:35.769Z,206.13
2018-11-22T01:13:05.401Z,208.60
2018-11-22T01:15:35.075Z,198.17
2018-11-22T01:18:04.869Z,196.33
2018-11-22T01:20:34.612Z,199.70
2018-11-22T01:23:04.610Z,201.73
2018-11-22T01:25:34.272Z,203.43
2018-11-22T01:28:04.841Z,181.43
2018-11-22T01:30:34.546Z,182.60
2018-11-22T01:33:23.143Z,181.43
2018-11-22T01:36:11.740Z,187.20
2018-11-22T01:39:00.348Z,177.50
2018-11-22T01:41:41.780Z,141.57
2018-11-22T01:44:23.376Z,132.67
2018-11-22T01:47:04.603Z,124.00
2018-11-22T01:49:45.657Z,119.27
2018-11-22T01:52:26.809Z,128.07
2018-11-22T01:55:08.346Z,125.93
2018-11-22T01:57:49.604Z,116.90
2018-11-22T02:00:31.056Z,112.63
2018-11-22T02:03:12.652Z,111.10
2018-11-22T02:05:53.916Z,92.33
2018-11-22T02:08:34.893Z,90.57
2018-11-22T02:11:15.641Z,88.13
2018-11-22T02:13:56.997Z,84.03
2018-11-22T02:16:38.729Z,79.77
2018-11-22T02:19:19.952Z,79.60
2018-11-22T02:22:01.336Z,72.80
2018-11-22T02:24:42.565Z,71.37
2018-11-22T02:27:24.106Z,68.80
2018-11-22T02:30:05.415Z,64.43
2018-11-22T02:32:47.531Z,64.70
2018-11-22T02:35:28.750Z,58.43
2018-11-22T02:38:09.757Z,60.60
2018-11-22T02:40:50.550Z,58.10
2018-11-22T02:43:32.138Z,55.43
2018-11-22T02:46:12.843Z,51.80
2018-11-22T02:48:54.026Z,51.23
2018-11-22T02:51:34.670Z,49.50
2018-11-22T02:54:16.026Z,48.63
2018-11-22T02:56:57.635Z,48.20
2018-11-22T02:59:38.938Z,47.70
2018-11-22T03:02:19.977Z,45.73
2018-11-22T03:05:01.226Z,43.47
2018-11-22T03:07:42.872Z,43.37
2018-11-22T03:10:23.827Z,43.00
2018-11-22T03:13:05.093Z,41.97
2018-11-22T03:15:47.015Z,40.37
2018-11-22T03:18:27.808Z,38.77
2018-11-22T03:21:09.163Z,37.90
2018-11-22T03:23:49.899Z,36.70
2018-11-22T03:26:29.557Z,37.27
2018-11-22T03:29:18.157Z,36.67
2018-11-22T03:32:06.747Z,34.30
2018-11-22T03:34:55.331Z,33.90
2018-11-22T03:37:43.932Z,32.37
2018-11-22T03:40:32.528Z,33.00
2018-11-22T03:43:39.821Z,31.60
2018-11-22T03:46:28.412Z,30.03
2018-11-22T03:49:16.998Z,31.27
2018-11-22T03:52:05.651Z,29.80
2018-11-22T03:54:54.241Z,27.97
2018-11-22T03:57:43.196Z,29.57
2018-11-22T04:00:31.806Z,28.37
2018-11-22T04:03:20.468Z,26.97
2018-11-22T04:09:16.885Z,26.17
2018-11-22T04:12:05.474Z,25.27
2018-11-22T04:14:54.117Z,25.90
2018-11-22T04:17:42.874Z,25.23
2018-11-22T04:20:32.620Z,25.43
2018-11-22T04:23:21.253Z,24.03
2018-11-22T04:26:09.895Z,24.33
2018-11-22T04:32:06.390Z,24.80
2018-11-22T04:34:54.952Z,23.73
2018-11-22T04:37:43.843Z,22.73
2018-11-22T04:40:33.144Z,22.33
2018-11-22T04:43:21.724Z,24.10
2018-11-22T04:52:12.520Z,23.37
2018-11-22T04:55:01.116Z,23.13
2018-11-22T04:57:49.692Z,22.97
2018-11-22T05:00:38.289Z,22.67
2018-11-22T05:03:26.878Z,23.07
2018-11-22T05:06:15.476Z,23.93
2018-11-22T05:09:04.404Z,23.13
2018-11-22T05:11:52.981Z,22.70
2018-11-22T05:14:41.587Z,22.23
2018-11-22T05:17:30.234Z,22.63
2018-11-22T05:20:20.019Z,22.70
2018-11-22T05:23:08.621Z,21.13
2018-11-22T05:25:57.202Z,22.03
2018-11-22T05:28:45.835Z,21.47
2018-11-22T05:31:34.488Z,22.40
2018-11-22T05:37:17.355Z,22.13
2018-11-22T05:40:07.610Z,21.13
2018-11-22T05:42:56.488Z,20.87
2018-11-22T05:45:45.099Z,22.00
2018-11-22T05:48:33.673Z,22.07
2018-11-22T05:51:22.625Z,21.77
2018-11-22T05:54:11.258Z,22.40
2018-11-22T05:56:40.961Z,21.60
2018-11-22T05:59:29.546Z,21.13
2018-11-22T06:02:18.140Z,21.13
2018-11-22T06:05:07.088Z,21.50
2018-11-22T06:07:55.896Z,20.80
2018-11-22T06:10:45.011Z,21.77
2018-11-22T06:13:33.661Z,21.47
2018-11-22T06:16:03.671Z,21.57
2018-11-22T06:21:46.458Z,21.60
2018-11-22T06:24:35.041Z,19.93
2018-11-22T06:27:23.685Z,20.30
2018-11-22T06:30:15.334Z,21.33
2018-11-22T06:33:04.568Z,21.77
2018-11-22T06:35:53.246Z,20.23
2018-11-22T06:41:49.653Z,22.40
2018-11-22T06:44:38.767Z,21.00
2018-11-22T06:50:23.269Z,21.83
2018-11-22T06:53:11.846Z,21.70
2018-11-22T06:56:00.454Z,21.27
2018-11-22T06:58:49.039Z,20.80
2018-11-22T07:01:37.627Z,21.17
2018-11-22T07:04:26.283Z,20.83
2018-11-22T07:07:14.876Z,20.60
2018-11-22T07:10:03.702Z,21.10
2018-11-22T07:12:52.450Z,20.60
2018-11-22T07:15:41.031Z,21.43
2018-11-22T07:18:29.633Z,21.20
2018-11-22T07:21:18.260Z,20.87
2018-11-22T07:27:01.623Z,20.67
2018-11-22T07:29:50.201Z,20.93
2018-11-22T07:32:38.824Z,21.10
2018-11-22T07:35:29.027Z,20.87
2018-11-22T07:38:17.642Z,20.90
2018-11-22T07:41:06.875Z,21.97
2018-11-22T07:43:47.873Z,19.87
2018-11-22T07:46:28.816Z,21.07
2018-11-22T07:49:10.234Z,21.63
2018-11-22T07:51:51.763Z,21.07
2018-11-22T07:54:33.148Z,20.20
2018-11-22T07:57:14.030Z,20.30
2018-11-22T07:59:54.747Z,23.87
2018-11-22T08:02:36.447Z,23.20
2018-11-22T08:05:18.529Z,39.47
2018-11-22T08:08:00.591Z,82.67
2018-11-22T08:10:41.525Z,74.93
2018-11-22T08:13:23.041Z,67.47
2018-11-22T08:16:03.750Z,71.70
2018-11-22T08:18:44.769Z,68.33
2018-11-22T08:21:26.076Z,66.43
2018-11-22T08:24:07.305Z,65.67
2018-11-22T08:26:48.819Z,64.47
2018-11-22T08:29:30.608Z,67.03
2018-11-22T08:32:11.717Z,66.93
2018-11-22T08:34:52.798Z,63.27
2018-11-22T08:37:33.546Z,79.13
2018-11-22T08:40:22.449Z,113.87
2018-11-22T08:43:03.904Z,104.10
2018-11-22T08:45:44.907Z,100.77
2018-11-22T08:48:24.583Z,97.77
2018-11-22T08:51:13.231Z,106.63
2018-11-22T08:56:56.406Z,122.03
2018-11-22T08:59:45.424Z,118.60
2018-11-22T09:02:34.034Z,115.77
2018-11-22T09:05:41.418Z,116.20
2018-11-22T09:08:30.013Z,114.97
2018-11-22T09:11:18.669Z,116.93
2018-11-22T09:14:07.357Z,146.97
2018-11-22T09:16:56.374Z,132.73
2018-11-22T09:19:44.993Z,128.63
2018-11-22T09:22:34.004Z,117.30
2018-11-22T09:25:23.045Z,137.53
2018-11-22T09:28:11.664Z,130.17
2018-11-22T09:31:00.232Z,123.47
2018-11-22T09:36:37.810Z,122.43
2018-11-22T09:39:26.824Z,120.27
2018-11-22T09:42:15.529Z,114.10
2018-11-22T09:45:04.110Z,110.07
2018-11-22T09:47:53.283Z,111.53
2018-11-22T09:53:36.375Z,110.30
2018-11-22T09:56:25.302Z,110.30
2018-11-22T10:05:03.547Z,111.57
2018-11-22T10:07:52.027Z,109.60
2018-11-22T10:10:41.028Z,110.27
2018-11-22T10:13:29.640Z,107.17
2018-11-22T10:16:18.271Z,107.63
2018-11-22T10:19:06.910Z,111.17
2018-11-22T10:21:55.561Z,105.73
2018-11-22T10:27:53.615Z,109.20
2018-11-22T10:30:42.218Z,110.03
2018-11-22T10:33:30.813Z,104.47
2018-11-22T10:39:27.178Z,106.70
2018-11-22T10:42:15.826Z,100.17
2018-11-22T10:45:04.888Z,102.90
2018-11-22T10:47:54.769Z,107.23
2018-11-22T10:50:43.386Z,107.83
2018-11-22T10:53:32.327Z,105.23
2018-11-22T10:56:21.304Z,107.57
2018-11-22T10:59:09.952Z,102.63
2018-11-22T11:02:17.375Z,104.03
2018-11-22T11:05:24.836Z,98.03
2018-11-22T11:08:15.006Z,100.53
2018-11-22T11:11:03.785Z,98.67
2018-11-22T11:13:52.445Z,99.10
2018-11-22T11:16:41.014Z,99.30
2018-11-22T11:19:29.721Z,102.53
2018-11-22T11:22:18.314Z,107.40
2018-11-22T11:25:07.690Z,105.17
2018-11-22T11:30:51.511Z,106.33
2018-11-22T11:33:21.544Z,104.23
2018-11-22T12:15:53.576Z,71.07
2018-11-22T12:18:21.992Z,72.80
2018-11-22T12:20:50.383Z,79.27
2018-11-22T12:23:18.776Z,78.13
2018-11-22T12:25:47.153Z,80.60
2018-11-22T12:28:16.280Z,85.73
2018-11-22T12:30:44.736Z,87.57
2018-11-22T12:33:20.164Z,95.13
2018-11-22T12:35:54.557Z,87.23
2018-11-22T12:38:28.354Z,86.87
2018-11-22T12:40:56.733Z,87.03
2018-11-22T12:43:25.128Z,86.80
2018-11-22T12:45:53.532Z,88.50
2018-11-22T12:48:21.990Z,86.63
2018-11-22T12:50:50.389Z,86.73
2018-11-22T12:53:18.866Z,83.20
2018-11-22T12:55:47.275Z,82.07
2018-11-22T12:58:15.651Z,101.73
2018-11-22T13:00:44.086Z,106.20
2018-11-22T13:03:12.995Z,102.50
2018-11-22T13:05:41.449Z,97.20
2018-11-22T13:08:09.905Z,90.63
2018-11-22T13:10:38.308Z,88.37
2018-11-22T13:13:07.080Z,78.17
2018-11-22T13:15:35.487Z,80.33
2018-11-22T13:18:03.885Z,77.40
2018-11-22T13:20:32.881Z,78.47
2018-11-22T13:23:01.280Z,76.47
2018-11-22T13:25:29.676Z,77.87
2018-11-22T13:27:58.050Z,75.70
2018-11-22T13:30:28.657Z,74.47
2018-11-22T13:32:57.759Z,61.53
2018-11-22T13:35:26.148Z,67.33
2018-11-22T13:37:55.636Z,77.63
2018-11-22T13:40:24.259Z,101.60
2018-11-22T13:42:53.390Z,83.93
2018-11-22T13:45:23.759Z,92.27
2018-11-22T13:47:53.377Z,102.30
2018-11-22T13:50:27.568Z,101.57
2018-11-22T13:52:59.957Z,96.33
2018-11-22T13:55:28.361Z,90.70
2018-11-22T13:57:56.940Z,87.07
2018-11-22T14:00:26.764Z,78.67
2018-11-22T14:02:57.551Z,79.87
2018-11-22T14:05:25.940Z,109.37
2018-11-22T14:07:54.376Z,107.43
2018-11-22T14:10:23.113Z,83.30
2018-11-22T14:12:51.802Z,69.37
2018-11-22T14:15:25.597Z,63.07
2018-11-22T14:17:55.525Z,69.80
2018-11-22T14:20:25.532Z,78.10
2018-11-22T14:22:53.919Z,91.43
2018-11-22T14:25:22.306Z,83.13
2018-11-22T14:27:51.196Z,80.17
2018-11-22T14:30:20.997Z,85.47
2018-11-22T14:32:50.291Z,78.30
2018-11-22T14:35:19.813Z,79.47
2018-11-22T14:37:48.214Z,78.23
2018-11-22T14:40:19.132Z,75.57
2018-11-22T14:42:48.425Z,75.20
2018-11-22T14:45:17.228Z,75.10
2018-11-22T14:47:46.898Z,70.23
2018-11-22T14:50:26.014Z,71.27
2018-11-22T14:53:01.074Z,67.23
2018-11-22T14:55:29.487Z,63.07
2018-11-22T14:57:57.941Z,63.60
2018-11-22T15:00:26.396Z,58.03
2018-11-22T15:02:54.780Z,60.57
2018-11-22T15:05:23.177Z,74.93
2018-11-22T15:07:51.557Z,62.57
2018-11-22T15:10:19.996Z,95.90
2018-11-22T15:12:48.865Z,103.17
2018-11-22T15:15:19.063Z,110.20
2018-11-22T15:17:47.521Z,105.87
2018-11-22T15:20:20.020Z,109.10
2018-11-22T15:22:49.418Z,89.33
2018-11-22T15:25:19.540Z,89.97
2018-11-22T15:27:48.043Z,81.47
2018-11-22T15:30:20.993Z,77.47
2018-11-22T15:32:49.402Z,74.50
2018-11-22T15:35:19.183Z,71.77
2018-11-22T15:37:47.985Z,88.43
2018-11-22T15:40:17.804Z,98.10
2018-11-22T15:42:48.455Z,122.77
2018-11-22T15:45:17.348Z,124.87
2018-11-22T15:47:46.008Z,116.57
2018-11-22T15:50:15.757Z,108.63
2018-11-22T15:52:44.400Z,105.40
2018-11-22T15:55:20.451Z,99.97
2018-11-22T15:57:43.112Z,97.73
2018-11-22T16:00:14.059Z,96.30
2018-11-22T16:02:43.400Z,94.27
2018-11-22T16:05:12.765Z,87.40
2018-11-22T16:07:41.954Z,85.60
2018-11-22T16:10:14.986Z,88.13
2018-11-22T16:12:44.545Z,96.37
2018-11-22T16:15:17.997Z,99.03
2018-11-22T16:17:46.427Z,95.50
2018-11-22T16:20:14.829Z,101.87
2018-11-22T16:22:43.351Z,101.47
2018-11-22T16:25:12.913Z,103.37
2018-11-22T16:27:41.562Z,93.90
2018-11-22T16:30:15.696Z,88.40
2018-11-22T16:32:44.479Z,89.70
2018-11-22T16:35:14.213Z,92.50
2018-11-22T16:37:43.604Z,89.33
2018-11-22T16:40:14.855Z,89.77
2018-11-22T16:42:44.352Z,88.30
2018-11-22T16:45:19.047Z,100.37
2018-11-22T16:47:47.558Z,132.20
2018-11-22T16:50:17.305Z,127.67
2018-11-22T16:52:45.907Z,124.27
2018-11-22T16:55:14.722Z,121.50
2018-11-22T16:57:44.475Z,111.10
2018-11-22T17:00:22.881Z,108.57
2018-11-22T17:02:52.829Z,105.17
2018-11-22T17:05:21.419Z,104.83
2018-11-22T17:07:49.953Z,100.50
2018-11-22T17:10:19.761Z,99.53
2018-11-22T17:12:49.797Z,99.90
2018-11-22T17:15:19.584Z,93.50
2018-11-22T17:17:48.504Z,90.60
2018-11-22T17:20:18.010Z,91.60
2018-11-22T17:22:47.105Z,82.30
2018-11-22T17:25:19.990Z,98.23
2018-11-22T17:27:49.705Z,79.67
2018-11-22T17:30:20.436Z,161.57
2018-11-22T17:32:48.884Z,171.60
2018-11-22T17:35:20.840Z,170.00
2018-11-22T17:37:49.626Z,174.43
2018-11-22T17:40:22.333Z,169.13
2018-11-22T17:42:50.903Z,158.80
2018-11-22T17:45:23.764Z,159.33
2018-11-22T17:47:52.625Z,151.83
2018-11-22T17:50:22.152Z,149.77
2018-11-22T17:52:50.561Z,151.53
2018-11-22T17:55:20.476Z,138.00
2018-11-22T17:57:48.892Z,151.70
2018-11-22T18:00:19.590Z,158.83
2018-11-22T18:02:49.625Z,199.53
2018-11-22T18:05:18.124Z,180.07
2018-11-22T18:07:46.670Z,156.70
2018-11-22T18:10:18.858Z,154.20
2018-11-22T18:12:47.940Z,140.43
2018-11-22T18:15:17.405Z,139.20
2018-11-22T18:17:46.109Z,131.80
2018-11-22T18:20:17.064Z,130.90
2018-11-22T18:22:46.149Z,132.10
2018-11-22T18:25:16.105Z,128.93
2018-11-22T18:27:44.568Z,120.73
2018-11-22T18:30:30.207Z,118.83
2018-11-22T18:33:00.474Z,108.77
2018-11-22T18:35:28.881Z,107.40
2018-11-22T18:37:57.397Z,109.77
2018-11-22T18:40:27.143Z,100.40
2018-11-22T18:42:56.643Z,97.47
2018-11-22T18:45:32.350Z,98.03
2018-11-22T18:48:02.004Z,93.93
2018-11-22T18:50:31.617Z,93.30
2018-11-22T18:53:00.104Z,89.57
2018-11-22T18:55:28.560Z,92.73
2018-11-22T18:57:56.966Z,87.07
2018-11-22T19:00:26.618Z,86.77
2018-11-22T19:02:56.504Z,84.17
2018-11-22T19:05:25.077Z,80.27
2018-11-22T19:07:54.258Z,78.57
2018-11-22T19:10:24.985Z,77.10
2018-11-22T19:12:54.704Z,74.53
2018-11-22T19:15:24.424Z,70.93
2018-11-22T19:17:53.396Z,70.80
2018-11-22T19:20:24.452Z,70.73
2018-11-22T19:22:53.454Z,73.53
2018-11-22T19:25:22.412Z,78.70
2018-11-22T19:27:51.351Z,75.07
2018-11-22T19:30:22.449Z,73.40
2018-11-22T19:32:51.988Z,71.53
2018-11-22T19:35:22.093Z,68.33
2018-11-22T19:37:50.883Z,64.00
2018-11-22T19:40:21.503Z,61.30
2018-11-22T19:42:51.392Z,61.97
2018-11-22T19:45:20.860Z,58.73
2018-11-22T19:47:49.513Z,58.83
2018-11-22T19:50:19.434Z,57.17
2018-11-22T19:52:48.617Z,58.07
2018-11-22T19:55:19.789Z,74.27
2018-11-22T19:57:49.884Z,71.13
2018-11-22T20:00:19.094Z,63.40
2018-11-22T20:02:47.986Z,63.10
2018-11-22T20:05:17.607Z,60.40
2018-11-22T20:07:47.317Z,58.60
2018-11-22T20:10:19.352Z,56.70
2018-11-22T20:12:47.789Z,54.33
2018-11-22T20:15:16.419Z,52.40
2018-11-22T20:17:45.636Z,53.53
2018-11-22T20:20:15.213Z,51.83
2018-11-22T20:22:43.651Z,50.60
2018-11-22T20:25:12.081Z,49.43
2018-11-22T20:27:40.950Z,48.43
2018-11-22T20:30:15.008Z,46.23
2018-11-22T20:32:43.890Z,49.73
2018-11-22T20:35:14.468Z,54.83
2018-11-22T20:37:43.632Z,53.60
2018-11-22T20:40:13.417Z,50.20
2018-11-22T20:42:42.090Z,49.43
2018-11-22T20:45:12.353Z,45.47
2018-11-22T20:47:41.621Z,44.20
2018-11-22T20:50:15.457Z,43.07
2018-11-22T20:52:44.658Z,42.37
2018-11-22T20:55:15.751Z,47.03
2018-11-22T20:57:44.985Z,49.23
2018-11-22T21:00:15.516Z,48.57
2018-11-22T21:02:44.100Z,52.73
2018-11-22T21:05:13.080Z,50.83
2018-11-22T21:07:42.179Z,49.47
2018-11-22T21:10:15.893Z,47.63
2018-11-22T21:12:44.340Z,46.30
2018-11-22T21:15:15.549Z,44.67
2018-11-22T21:17:44.716Z,44.30
2018-11-22T21:20:15.138Z,44.87
2018-11-22T21:22:43.565Z,42.10
2018-11-22T21:25:14.719Z,40.97
2018-11-22T21:27:43.132Z,38.43
2018-11-22T21:30:15.713Z,39.40
2018-11-22T21:32:45.023Z,44.43
2018-11-22T21:35:13.697Z,59.03
2018-11-22T21:37:42.420Z,65.47
2018-11-22T21:40:11.592Z,68.77
2018-11-22T21:42:40.081Z,80.80
2018-11-22T21:45:13.208Z,83.93
2018-11-22T21:47:42.314Z,84.93
2018-11-22T21:50:12.128Z,79.17
2018-11-22T21:52:40.540Z,72.53
2018-11-22T21:55:11.370Z,70.73
2018-11-22T21:57:40.897Z,73.27
2018-11-22T22:00:14.034Z,71.43
2018-11-22T22:02:42.458Z,64.67
2018-11-22T22:05:11.342Z,63.63
2018-11-22T22:07:40.149Z,62.60
2018-11-22T22:10:08.559Z,68.67
2018-11-22T22:12:37.063Z,69.63
2018-11-22T22:15:07.877Z,67.37
2018-11-22T22:17:36.328Z,77.67
2018-11-22T22:20:06.675Z,84.90
2018-11-22T22:22:35.108Z,81.37
2018-11-22T22:25:03.481Z,84.33
2018-11-22T22:27:32.024Z,90.80
2018-11-22T22:30:00.438Z,74.93
2018-11-22T22:32:28.897Z,84.43
2018-11-22T22:34:57.284Z,83.03
2018-11-22T22:37:25.868Z,83.07
2018-11-22T22:39:54.258Z,87.57
2018-11-22T22:42:22.661Z,109.33
2018-11-22T22:44:51.070Z,118.40
2018-11-22T22:47:19.499Z,120.17
2018-11-22T22:49:48.291Z,113.00
2018-11-22T22:52:16.717Z,128.83
2018-11-22T22:54:45.684Z,136.67
2018-11-22T22:57:14.140Z,132.77
2018-11-22T22:59:42.527Z,130.53
2018-11-22T23:02:10.962Z,127.17
2018-11-22T23:04:39.369Z,127.27
2018-11-22T23:07:07.765Z,123.73
2018-11-22T23:09:36.184Z,120.77
2018-11-22T23:12:04.814Z,145.20
2018-11-22T23:14:33.242Z,143.13
2018-11-22T23:17:01.653Z,136.30
2018-11-22T23:19:30.078Z,133.37
2018-11-22T23:21:58.521Z,138.17
2018-11-22T23:24:27.055Z,131.70
2018-11-22T23:26:55.473Z,133.77
2018-11-22T23:29:23.881Z,129.83
2018-11-22T23:31:52.358Z,125.30
2018-11-22T23:34:20.789Z,127.73
2018-11-22T23:36:49.246Z,127.03
2018-11-22T23:39:17.664Z,123.37
2018-11-22T23:41:46.062Z,122.07
2018-11-22T23:44:14.610Z,121.57
2018-11-22T23:46:43.045Z,117.83
2018-11-22T23:49:11.584Z,123.73
2018-11-22T23:51:47.713Z,132.73
2018-11-22T23:54:16.128Z,166.13
2018-11-22T23:56:44.685Z,162.93
2018-11-22T23:59:13.141Z,146.60
